Patrick Dumfries

Olheiro-Chefe - Vitesse
23 Set 2027
Quinta-feira
Processo

Personalidade

Adaptabilidade (19) Ambição (18) Controvérsia (8) Lealdade (5) Pressão (13) Profissionalismo (18) Espírito Esportivo (12) Temperamento (7)

Perfil

Estilo de Treinamento Democrático
Licença Continental A
Determinação 6
Gestão de Pessoas 6
Motivação 5
Disciplina 7
Satisfação no Trabalho
100%
Fadiga
0%
Função Olheiro-Chefe
Salário 69.1K p/s
Contrato 14.03.2029

Desempenho

Comportamento Bom
Eficácia do Treinamento
54%
Desenvolvimento do Jogador
40%
Prevenção de Lesões
50%
Implementação Tática
50%

Eventos Recentes

Participou de uma reunião de recrutamento agora
Recomendou um alvo de transferência agora
Recomendou um alvo de transferência agora
Recomendou um alvo de transferência agora
Recomendou um alvo de transferência agora
Recomendou um alvo de transferência 7d atrás
Recomendou um alvo de transferência 7d atrás
Aniversário 7d atrás

Monitorando agora

138
Jogador Clube Status Habilidade Confiança Observado Última observação Último voto
Assane Diao Lazio Ativo 153 / 150 40% 1 16.08.2027 -
Bryan Gil Girona Ativo 156 / 138 40% 1 16.08.2027 -
Javi Puado Espanyol Ativo 147 / 146 40% 3 09.08.2027 -
Welington Southampton Ativo 132 / 131 40% 1 09.08.2027 -
Ollie Tanner Cardiff City Ativo 129 / 125 40% 1 02.08.2027 -
Jason Knight Bristol City Ativo 132 / 132 40% 1 02.08.2027 -
Fuzy Taylor Medeama Ativo 67 / 79 40% 1 26.07.2027 -
Darryl Bakola Padova Negociando 104 / 111 40% 1 26.07.2027 -
Lucas Høgsberg RC Strasbourg Ativo 143 / 130 40% 1 04.06.2027 -
Josh King Chelsea Ativo 131 / 150 40% 1 04.06.2027 -
Jofre Torrents Ajax Ativo 113 / 143 40% 1 03.06.2027 -
Davide Bartesaghi AC Milan Ativo 142 / 123 40% 1 03.06.2027 -
Pedro de la Vega FC Dallas Ativo 133 / 134 66% 1 01.06.2027 Aprovar
Nick Viergever Zwolle Ativo 132 / 129 48% 1 01.06.2027 -
Kostantis Tzolakis Hull City Ativo 141 / 140 40% 5 28.05.2027 -
Carlos Vicente Birmingham Ativo 151 / 130 40% 3 28.05.2027 -
Igor Nikić Mirandés Ativo 124 / 132 40% 7 27.05.2027 -
Balázs Tóth Blackburn Rovers Ativo 121 / 117 40% 2 27.05.2027 -
Guilherme Fernandes Córdoba Ativo 132 / 135 40% 4 25.05.2027 -
Ionuţ Radu Celta Ativo 132 / 143 40% 3 25.05.2027 -
Julen Agirrezabala Racing Santander Ativo 154 / 155 40% 7 24.05.2027 -
Joel Pereira Reading Ativo 106 / 116 40% 2 24.05.2027 -
Brent Gabriel Zulte Waregem Ativo 121 / 113 40% 4 22.05.2027 -
Bailey Peacock-Farrell Blackpool Ativo 119 / 101 40% 2 22.05.2027 -
Lorenzo Palmisani Frosinone Ativo 125 / 126 40% 3 21.05.2027 -
Murphy Cooper Plymouth Argyle Ativo 124 / 114 40% 4 21.05.2027 -
Max O'Leary West Bromwich Albion Ativo 134 / 132 40% 3 20.05.2027 -
Andrés Martín Racing Santander Ativo 143 / 129 40% 3 19.05.2027 -
Caoimhin Kelleher Brentford Ativo 165 / 147 40% 3 19.05.2027 -
Leo Kokubo Sint-Truiden Ativo 129 / 108 40% 3 18.05.2027 -
Pol Tristán Barnsley Ativo 114 / 106 40% 8 18.05.2027 -
Jamie Cumming Oxford United Ativo 118 / 122 40% 5 18.05.2027 -
Mads Hermansen West Ham United Ativo 131 / 138 40% 1 18.05.2027 -
Stanley Mills Oxford United Ativo 125 / 120 40% 1 17.05.2027 -
Riley McGree Middlesbrough Ativo 143 / 118 40% 1 17.05.2027 -
Antonio Sivera Alavés Ativo 135 / 141 40% 4 14.05.2027 -
Gonzalo Crettaz NEC Ativo 135 / 143 40% 2 13.05.2027 -
Mario Stroeykens Anderlecht Ativo 122 / 130 40% 1 07.05.2027 -
Michael Cooper Sheffield United Ativo 140 / 125 40% 7 03.05.2027 -
Zach Hemming Chesterfield Ativo 106 / 99 40% 3 03.05.2027 -
Fabian de Keijzer Heracles Ativo 107 / 126 40% 4 03.05.2027 -
Couhaib Driouech Celta Ativo 136 / 131 40% 1 03.05.2027 -
Yehvann Diouf OGC Nice Ativo 143 / 137 40% 4 30.04.2027 -
Thomas Didillon-Hödl Willem II Ativo 121 / 111 40% 2 29.04.2027 -
Daniel Iversen Preston Ativo 135 / 120 40% 1 29.04.2027 -
Javi Ontiveros Cádiz Ativo 139 / 133 40% 1 29.04.2027 -
Ianis Hagi Alanyaspor Ativo 137 / 110 40% 1 29.04.2027 -
Álvaro Valles Betis Ativo 148 / 149 40% 3 27.04.2027 -
Pol Lozano Espanyol Ativo 139 / 132 40% 2 27.04.2027 -
Alfie Whiteman Newport County Ativo 109 / 95 40% 2 27.04.2027 -
Finn Azaz Southampton Ativo 126 / 116 40% 1 27.04.2027 -
Robin Roefs Sunderland Ativo 153 / 153 40% 2 23.04.2027 -
Arijanet Murić Sassuolo Ativo 149 / 147 40% 4 20.04.2027 -
Radek Vítek Middlesbrough Ativo 146 / 132 40% 4 20.04.2027 -
Abel Ruiz Girona Ativo 148 / 135 40% 1 20.04.2027 -
Félix Lemaréchal Club Brugge Ativo 149 / 150 40% 1 20.04.2027 -
Leander Lukaku KV Oostende Ativo 129 / 134 40% 5 17.04.2027 -
Dean Henderson Crystal Palace Ativo 140 / 149 40% 4 17.04.2027 -
Erick Reyes Toluca Ativo 148 / 134 40% 8 16.04.2027 -
Jonmi Magunagoitia Eibar Ativo 121 / 127 40% 5 15.04.2027 -
Corey Addai Stockport County Ativo 103 / 115 40% 2 11.04.2027 -
Jeffrey de Lange Olympique de Marseille Ativo 138 / 123 40% 1 11.04.2027 -
Beau Reus Waasland-Beveren Ativo 139 / 139 40% 11 08.04.2027 -
Thomas De Bruyne Mouscron Ativo 128 / 133 40% 5 05.04.2027 -
Tom Fellows Southampton Ativo 121 / 139 40% 1 04.04.2027 -
Juninho Pumas UNAM Ativo 130 / 120 40% 4 02.04.2027 -
Ozziel Herrera Tigres Ativo 118 / 130 40% 1 02.04.2027 -
Luís Esteves Atlas Ativo 126 / 119 40% 1 01.04.2027 -
Mduduzi Shabalala Kaizer Chiefs Ativo 121 / 111 40% 1 01.04.2027 -
Etienne Vaessen Groningen Ativo 108 / 133 40% 3 27.03.2027 -
Marko Ilić Westerlo Ativo 119 / 128 40% 4 27.03.2027 -
Myron Boadu Twente Ativo 115 / 123 40% 1 27.03.2027 -
Chris Lokesa Waasland-Beveren Ativo 116 / 111 40% 1 27.03.2027 -
Ortwin De Wolf KV Mechelen Ativo 111 / 126 40% 4 25.03.2027 -
Ilay Camara Anderlecht Ativo 124 / 128 40% 2 24.03.2027 -
Jacob Widell Zetterström Derby County Ativo 131 / 138 40% 1 24.03.2027 -
Carlos Marín Albacete Ativo 130 / 133 40% 2 19.03.2027 -
Stijn van Gassel Excelsior Ativo 118 / 134 40% 4 18.03.2027 -
Maxence Prévot OH Leuven Ativo 105 / 122 40% 4 13.03.2027 -
Fernando Valenzuela Queretaro Ativo 132 / 137 40% 1 12.03.2027 -
Siebe Schrijvers OH Leuven Ativo 125 / 127 40% 1 11.03.2027 -
Ruben van Bommel Ferencvaros Ativo 113 / 121 40% 1 11.03.2027 -
Yoann Cathline Utrecht Ativo 142 / 126 40% 1 10.03.2027 -
Bradley Mabunda SuperSport United Ativo 99 / 119 40% 1 09.03.2027 -
Cezary Miszta Rio Ave Ativo 123 / 136 40% 1 24.02.2027 -
Jordan Amissah Burton Albion Ativo 111 / 100 40% 1 18.02.2027 -
Wladimiro Falcone Lecce Ativo 128 / 128 40% 1 11.02.2027 -
Carlos Moreno Pachuca Ativo 137 / 123 40% 1 09.02.2027 -
Hugo Souza Corinthians Ativo 121 / 130 40% 1 28.01.2027 -
Augusto Batalla Rayo Vallecano Ativo 146 / 149 40% 2 26.01.2027 -
Christian Walton Ipswich Town Ativo 125 / 131 40% 1 26.01.2027 -
Justin Treichel Roda Ativo 119 / 116 40% 1 21.01.2027 -
Nikolas Sattlberger Racing Genk Ativo 114 / 120 40% 1 12.01.2027 -
Omar El Hilali Espanyol Ativo 140 / 150 40% 1 12.01.2027 -
Lukas Jensen Millwall Ativo 115 / 107 40% 1 06.01.2027 -
George Wickens Lincoln City Ativo 105 / 117 40% 2 05.01.2027 -
Erick Sánchez OGC Nice Negociando 139 / 139 66% 1 01.01.2027 Aprovar
Raúl Rangel Sporting CP Negociando 132 / 132 66% 1 01.01.2027 Aprovar
Konstantin Tyukavin Inter Negociando 132 / 133 66% 1 01.01.2027 Aprovar
Andreas Trimmel Red Bull Salzburg Ativo 131 / 131 60% 1 01.01.2027 Aprovar
Israel Reyes CSKA Moscow Negociando 137 / 137 68% 1 01.01.2027 Aprovar
Oli McBurnie Hull City Ativo 128 / 125 40% 4 30.12.2026 -
Jhojan Julio Queretaro Ativo 110 / 126 40% 1 30.12.2026 -
Ryotaro Araki Sint-Truiden Ativo 118 / 115 40% 1 29.12.2026 -
Nacer Tielemans Mouscron Ativo 144 / 125 40% 3 27.12.2026 -
Hugo Duro Valencia Ativo 142 / 142 40% 1 27.12.2026 -
Myron van Brederode KV Mechelen Ativo 124 / 121 40% 3 25.12.2026 -
Nicolò Tresoldi Club Brugge Ativo 123 / 126 40% 4 19.12.2026 -
Vangelis Pavlidis Twente Ativo 161 / 158 40% 4 19.12.2026 -
Yousef Salech Cardiff City Ativo 129 / 117 40% 2 15.12.2026 -
Adriano Bertaccini Anderlecht Ativo 122 / 129 40% 6 13.12.2026 -
Rafiu Durosinmi Racing Genk Ativo 119 / 130 40% 1 09.12.2026 -
Themba Ngcobo SuperSport United Ativo 104 / 102 40% 1 07.12.2026 -
Mexx Meerdink AZ Ativo 147 / 129 40% 2 05.12.2026 -
Adnan Courtois KV Oostende Ativo 134 / 127 40% 4 04.12.2026 -
Romelu Castagne KV Oostende Ativo 129 / 145 40% 4 03.12.2026 -
Gabriel Jesus Barcelona Ativo 161 / 161 40% 3 28.11.2026 -
Lewis Morgan SuperSport United Ativo 150 / 114 40% 1 27.11.2026 -
Giacomo Raspadori Atalanta Ativo 135 / 155 40% 1 16.11.2026 -
Benito Raman KV Mechelen Ativo 109 / 121 40% 3 14.11.2026 -
Jakob Napoleon Romsaas Charleroi Ativo 122 / 118 40% 1 14.11.2026 -
Haris Tabaković Red Bull Salzburg Ativo 151 / 142 40% 1 11.11.2026 -
Thiago Brentford Ativo 154 / 159 40% 1 11.11.2026 -
Luis Vázquez Birmingham Ativo 116 / 123 40% 1 09.11.2026 -
Lucas Di Yorio Santos Laguna Ativo 121 / 118 40% 1 07.11.2026 -
Georginio Rutter Brighton Ativo 160 / 137 40% 1 29.10.2026 -
Freddy Gomez La Equidad Ativo 129 / 129 40% 1 23.10.2026 -
Dango Ouattara Brentford Ativo 137 / 151 40% 1 23.10.2026 -
Agustín Módica Gimnasia y Esgrima Ativo 103 / 101 40% 1 20.10.2026 -
Danylo Sikan Anderlecht Ativo 115 / 119 40% 1 19.10.2026 -
Hugo Cuypers Monterrey Ativo 131 / 136 40% 1 19.10.2026 -
Bénie Traoré New York City Ativo 126 / 117 40% 1 11.10.2026 -
Maksim Kireev KV Mechelen Ativo 112 / 119 40% 1 31.08.2026 -
Oualid Agougil Utrecht Ativo 109 / 104 44% 1 24.08.2026 -
Matisse Samoise KAA Gent Ativo 118 / 122 40% 1 17.08.2026 -
Taiga Hata Sint-Truiden Ativo 129 / 128 40% 1 10.08.2026 -
Roméo Amané Anderlecht Ativo 109 / 134 40% 1 10.08.2026 -
Igor Burnley Ativo 144 / 124 40% 1 01.08.2026 -